메인 페이지
METAR-TAF:

METAR-TAF

공항 :

Afonsos

리우데자네이루, 리우데자네이루, 브라질

위도: 22-52S, 경도: 043-22W, 고도: 34m

현재 날씨관측

예보는 9 시간 6분 전, 22:00시(UTC)에 발표되었습니다.
3kt
온도 19°C
습도 88%
기압 1024 hPa
시정: 5000m
고도 900ft 상공 구름 보통
고도 1500ft 상공 구름 많음
고도 4000ft 상공 흐림
약한비, 박무

METAR: SBAF 222200Z 26003KT 5000 -RA BR SCT009 BKN015 OVC040 19/17 Q1024

시각: 04:06 (07:06 UTC)

예보

예보는 4 시간 6분 전, 03:00시(UTC)에 발표되었습니다.
예보 대상 시간: 23일 06시부터 23일 18시까지 (UTC)
7kt
시정: 8000m
고도 900ft 상공 구름 보통
고도 3000ft 상공 구름 많음
확률 40% :
일시적
23일 06시부터 23일 10시까지 (UTC)
시정: 4000m
고도 800ft 상공 구름 많음
고도 2000ft 상공 흐림
비, 이슬비, 박무
전환 중
23일 12시부터 23일 14시까지 (UTC)
시정 10km 이상
고도 1200ft 상공 구름 보통
고도 3500ft 상공 구름 많음

TAF: SBAF 230300Z 2306/2318 10007KT 8000 SCT009 BKN030 TN17/2308Z TX21/2318Z PROB40 TEMPO 2306/2310 4000 RADZ BR BKN008 OVC020 BECMG 2312/2314 9999 NSW SCT012 BKN035 RMK PER

4,000개 이상의 공항 관측 자료 및 예보 (METAR 및 TAF 보고).

지도상에서 검색 가능한 기상관측소가 노란 점과 빨간 점으로 표시되어 있습니다.

기상관측소 명을 보려면 표시 위로 마우스를 이동하세요.

날씨 관측과 예보를 보려면 클릭하세요.

지도 변경 : 확대하려면 엑스 표시가 있는 녹색 버튼, 축소하려면 빼기 표시가 있는 녹색 버튼, 다음 페이지의 지도를 보려면 녹색 화살표를 클릭하세요.


METAR-TAF: